PWSweather.com
Personal Weather Stations
Station Observations
KCTCOLEB1
Sandy Brook, Colebrook, CT 06021

Sandy BrookColebrook, CT 06021

Lat: 42.0018, Lon: -73.0825

Elevation: 935

Station Type: Davis Vantage Pro2 + Solar + UV

Latest ConditionsUpdated 9:00:00 AM EDT Monday, May 29, 2017
Currently Today's Max Today's Min Today's Average
Temperature 52.7°F11.5°C 53.0°F11.7°C 49.5°F9.7°C 51.4°F10.8°C
Dew Point 50.4°F10.2°C 50.4°F10.2°C 47.8°F8.8°C 49.4°F9.7°C
Winds 1.2 mph SSW1.9 kmh SSW 2.3 mph W3.7 kmh W - 0.4 mph 0.6 kmh
Wind Gusts 1.2 mph1.9 kmh 3.5 mph5.6 kmh - -
Humidity 92% 96% 89% 93%
Pressure 29.91 in1012.9 mb 29.93 in1013.5 mb 29.89 in1012.2 mb -
Hour Temp Dew Point Humidity Winds Wind Gusts Pressure Precip Precip Rate Daily Precip Total
09:00 AM 52.7°F11.5°C 50.4°F10.2°C 92% 1.2 mph SSW1.9 kmh SSW 1.2 mph1.9 kmh 29.91 in1012.9 mb - 0.00 in0.0 mm 0.00 in0.0 mm
08:50 AM 52.7°F11.5°C 50.2°F10.1°C 91% 1.2 mph SSW1.9 kmh SSW 3.5 mph5.6 kmh 29.91 in1012.9 mb - 0.00 in0.0 mm 0.00 in0.0 mm
08:40 AM 52.8°F11.6°C 50.2°F10.1°C 91% 1.2 mph W1.9 kmh W 2.3 mph3.7 kmh 29.91 in1012.9 mb - 0.00 in0.0 mm 0.00 in0.0 mm
08:30 AM 52.7°F11.5°C 49.8°F9.9°C 90% 1.2 mph W1.9 kmh W 2.3 mph3.7 kmh 29.91 in1012.9 mb - 0.00 in0.0 mm 0.00 in0.0 mm
08:20 AM 52.7°F11.5°C 49.5°F9.7°C 89% 2.3 mph SW3.7 kmh SW 3.5 mph5.6 kmh 29.91 in1012.9 mb - 0.00 in0.0 mm 0.00 in0.0 mm
08:10 AM 52.7°F11.5°C 49.5°F9.7°C 89% 1.2 mph WSW1.9 kmh WSW 2.3 mph3.7 kmh 29.92 in1013.2 mb - 0.00 in0.0 mm 0.00 in0.0 mm
08:00 AM 52.8°F11.6°C 49.9°F9.9°C 90% Calm Calm 2.3 mph3.7 kmh 29.91 in1012.9 mb - 0.00 in0.0 mm 0.00 in0.0 mm
07:50 AM 52.7°F11.5°C 49.5°F9.7°C 89% 1.2 mph W1.9 kmh W 1.2 mph1.9 kmh 29.91 in1012.9 mb - 0.00 in0.0 mm 0.00 in0.0 mm
07:40 AM 52.7°F11.5°C 49.8°F9.9°C 90% 1.2 mph WSW1.9 kmh WSW 3.5 mph5.6 kmh 29.91 in1012.9 mb - 0.00 in0.0 mm 0.00 in0.0 mm
07:30 AM 52.6°F11.4°C 49.8°F9.9°C 90% 1.2 mph SW1.9 kmh SW 2.3 mph3.7 kmh 29.91 in1012.9 mb - 0.00 in0.0 mm 0.00 in0.0 mm
07:20 AM 52.6°F11.4°C 49.8°F9.9°C 90% 2.3 mph W3.7 kmh W 3.5 mph5.6 kmh 29.91 in1012.9 mb - 0.00 in0.0 mm 0.00 in0.0 mm
07:10 AM 52.5°F11.4°C 49.6°F9.8°C 90% 1.2 mph W1.9 kmh W 2.3 mph3.7 kmh 29.91 in1012.9 mb - 0.00 in0.0 mm 0.00 in0.0 mm
07:00 AM 52.3°F11.3°C 49.8°F9.9°C 91% 1.2 mph SW1.9 kmh SW 3.5 mph5.6 kmh 29.91 in1012.9 mb - 0.00 in0.0 mm 0.00 in0.0 mm
06:50 AM 52.2°F11.2°C 49.9°F9.9°C 92% 1.2 mph SSW1.9 kmh SSW 2.3 mph3.7 kmh 29.90 in1012.5 mb - 0.00 in0.0 mm 0.00 in0.0 mm
06:40 AM 52.1°F11.2°C 49.8°F9.9°C 92% Calm Calm -- 29.90 in1012.5 mb - 0.00 in0.0 mm 0.00 in0.0 mm
06:30 AM 52.0°F11.1°C 49.7°F9.8°C 92% 1.2 mph W1.9 kmh W 1.2 mph1.9 kmh 29.91 in1012.9 mb - 0.00 in0.0 mm 0.00 in0.0 mm
06:20 AM 51.9°F11.1°C 49.6°F9.8°C 92% 1.2 mph W1.9 kmh W 1.2 mph1.9 kmh 29.90 in1012.5 mb - 0.00 in0.0 mm 0.00 in0.0 mm
06:10 AM 51.8°F11.0°C 49.8°F9.9°C 93% Calm Calm -- 29.91 in1012.9 mb - 0.00 in0.0 mm 0.00 in0.0 mm
06:00 AM 51.7°F10.9°C 50.0°F10.0°C 94% 1.2 mph W1.9 kmh W 2.3 mph3.7 kmh 29.91 in1012.9 mb - 0.00 in0.0 mm 0.00 in0.0 mm
05:50 AM 51.6°F10.9°C 49.9°F9.9°C 94% Calm Calm 1.2 mph1.9 kmh 29.90 in1012.5 mb - 0.00 in0.0 mm 0.00 in0.0 mm
05:40 AM 51.5°F10.8°C 49.8°F9.9°C 94% Calm Calm -- 29.90 in1012.5 mb - 0.00 in0.0 mm 0.00 in0.0 mm
05:30 AM 51.4°F10.8°C 50.0°F10.0°C 95% Calm Calm -- 29.90 in1012.5 mb - 0.00 in0.0 mm 0.00 in0.0 mm
05:20 AM 51.4°F10.8°C 50.0°F10.0°C 95% Calm Calm -- 29.89 in1012.2 mb - 0.00 in0.0 mm 0.00 in0.0 mm
05:10 AM 51.3°F10.7°C 49.9°F9.9°C 95% Calm Calm -- 29.89 in1012.2 mb - 0.00 in0.0 mm 0.00 in0.0 mm
05:00 AM 51.2°F10.7°C 50.1°F10.1°C 96% Calm Calm -- 29.90 in1012.5 mb - 0.00 in0.0 mm 0.00 in0.0 mm
04:50 AM 51.0°F10.6°C 49.9°F9.9°C 96% Calm Calm -- 29.90 in1012.5 mb - 0.00 in0.0 mm 0.00 in0.0 mm
04:40 AM 50.9°F10.5°C 49.8°F9.9°C 96% Calm Calm -- 29.90 in1012.5 mb - 0.00 in0.0 mm 0.00 in0.0 mm
04:30 AM 50.8°F10.4°C 49.7°F9.8°C 96% Calm Calm 1.2 mph1.9 kmh 29.90 in1012.5 mb - 0.00 in0.0 mm 0.00 in0.0 mm
04:20 AM 50.6°F10.3°C 49.5°F9.7°C 96% Calm Calm 1.2 mph1.9 kmh 29.90 in1012.5 mb - 0.00 in0.0 mm 0.00 in0.0 mm
04:10 AM 50.5°F10.3°C 49.4°F9.7°C 96% Calm Calm -- 29.89 in1012.2 mb - 0.00 in0.0 mm 0.00 in0.0 mm
04:00 AM 50.3°F10.2°C 49.2°F9.6°C 96% Calm Calm -- 29.89 in1012.2 mb - 0.00 in0.0 mm 0.00 in0.0 mm
03:50 AM 50.2°F10.1°C 49.1°F9.5°C 96% Calm Calm -- 29.89 in1012.2 mb - 0.00 in0.0 mm 0.00 in0.0 mm
03:40 AM 50.0°F10.0°C 48.9°F9.4°C 96% Calm Calm -- 29.89 in1012.2 mb - 0.00 in0.0 mm 0.00 in0.0 mm
03:30 AM 49.8°F9.9°C 48.7°F9.3°C 96% Calm Calm -- 29.90 in1012.5 mb - 0.00 in0.0 mm 0.00 in0.0 mm
03:20 AM 49.7°F9.8°C 48.6°F9.2°C 96% Calm Calm -- 29.90 in1012.5 mb - 0.00 in0.0 mm 0.00 in0.0 mm
03:10 AM 49.6°F9.8°C 48.2°F9.0°C 95% Calm Calm -- 29.90 in1012.5 mb - 0.00 in0.0 mm 0.00 in0.0 mm
03:00 AM 49.5°F9.7°C 48.1°F8.9°C 95% Calm Calm -- 29.91 in1012.9 mb - 0.00 in0.0 mm 0.00 in0.0 mm
02:50 AM 49.5°F9.7°C 48.1°F8.9°C 95% Calm Calm -- 29.91 in1012.9 mb - 0.00 in0.0 mm 0.00 in0.0 mm
02:40 AM 49.5°F9.7°C 47.8°F8.8°C 94% Calm Calm -- 29.91 in1012.9 mb - 0.00 in0.0 mm 0.00 in0.0 mm
02:30 AM 49.6°F9.8°C 47.9°F8.8°C 94% Calm Calm -- 29.92 in1013.2 mb - 0.00 in0.0 mm 0.00 in0.0 mm
02:20 AM 49.7°F9.8°C 48.0°F8.9°C 94% Calm Calm -- 29.92 in1013.2 mb - 0.00 in0.0 mm 0.00 in0.0 mm
02:10 AM 49.9°F9.9°C 48.0°F8.9°C 93% Calm Calm -- 29.92 in1013.2 mb - 0.00 in0.0 mm 0.00 in0.0 mm
02:00 AM 50.1°F10.1°C 48.1°F8.9°C 93% Calm Calm -- 29.91 in1012.9 mb - 0.00 in0.0 mm 0.00 in0.0 mm
01:50 AM 50.3°F10.2°C 48.1°F8.9°C 92% Calm Calm -- 29.91 in1012.9 mb - 0.00 in0.0 mm 0.00 in0.0 mm
01:40 AM 50.5°F10.3°C 48.3°F9.1°C 92% Calm Calm -- 29.91 in1012.9 mb - 0.00 in0.0 mm 0.00 in0.0 mm
01:30 AM 50.8°F10.4°C 48.6°F9.2°C 92% Calm Calm -- 29.91 in1012.9 mb - 0.00 in0.0 mm 0.00 in0.0 mm
01:20 AM 51.1°F10.6°C 48.8°F9.3°C 92% Calm Calm -- 29.91 in1012.9 mb - 0.00 in0.0 mm 0.00 in0.0 mm
01:10 AM 51.3°F10.7°C 49.1°F9.5°C 92% Calm Calm -- 29.91 in1012.9 mb - 0.00 in0.0 mm 0.00 in0.0 mm
01:00 AM 51.6°F10.9°C 49.3°F9.6°C 92% Calm Calm -- 29.91 in1012.9 mb - 0.00 in0.0 mm 0.00 in0.0 mm
12:50 AM 51.8°F11.0°C 49.5°F9.7°C 92% Calm Calm -- 29.91 in1012.9 mb - 0.00 in0.0 mm 0.00 in0.0 mm
12:40 AM 52.1°F11.2°C 49.8°F9.9°C 92% Calm Calm -- 29.92 in1013.2 mb - 0.00 in0.0 mm 0.00 in0.0 mm
12:30 AM 52.3°F11.3°C 50.0°F10.0°C 92% Calm Calm -- 29.92 in1013.2 mb - 0.00 in0.0 mm 0.00 in0.0 mm
12:20 AM 52.5°F11.4°C 50.2°F10.1°C 92% Calm Calm -- 29.92 in1013.2 mb - 0.00 in0.0 mm 0.00 in0.0 mm
12:10 AM 52.8°F11.6°C 50.2°F10.1°C 91% Calm Calm -- 29.92 in1013.2 mb - 0.00 in0.0 mm 0.00 in0.0 mm
12:00 AM 53.0°F11.7°C 50.4°F10.2°C 91% Calm Calm -- 29.93 in1013.5 mb - 0.00 in0.0 mm 0.00 in0.0 mm